Time;durP1;ratioP1;P1;durP2;ratioP2;P2;SDS_P1;SDS_P2;PMS_P1;PMS_P2;Temp;Humidity;BMP_temperature;BMP_pressure;BME280_temperature;BME280_humidity;BME280_pressure;Samples;Min_cycle;Max_cycle;Signal;HPM_P1;HPM_P2
2021/12/04 00:01:53;;;;;;;;;0.67;0.67;;;;;;;;5088090;27;45423;-83
2021/12/04 00:04:31;;;;;;;;;0.00;0.00;;;;;;;;5068886;28;47749;-84
2021/12/04 00:06:57;;;;;;;;;1.67;1.00;;;;;;;;5088589;28;44685;-83
2021/12/04 00:09:22;;;;;;;;;0.00;0.00;;;;;;;;5086377;28;45467;-83
2021/12/04 00:11:54;;;;;;;;;0.00;0.00;;;;;;;;5086095;28;45575;-85
2021/12/04 00:14:19;;;;;;;;;0.00;0.00;;;;;;;;5066559;28;46967;-84
2021/12/04 00:16:45;;;;;;;;;1.67;0.67;;;;;;;;5085125;28;45389;-84
2021/12/04 00:19:10;;;;;;;;;0.00;0.00;;;;;;;;5062926;28;45337;-84
2021/12/04 00:21:36;;;;;;;;;0.00;0.00;;;;;;;;5025352;28;45469;-84
2021/12/04 00:24:01;;;;;;;;;0.00;0.00;;;;;;;;5025990;28;47162;-84
2021/12/04 00:26:27;;;;;;;;;0.00;0.00;;;;;;;;5023778;28;45861;-84
2021/12/04 00:28:52;;;;;;;;;0.00;0.00;;;;;;;;5041935;28;45810;-84
2021/12/04 00:31:17;;;;;;;;;0.00;0.00;;;;;;;;5042778;28;45442;-84
2021/12/04 00:33:50;;;;;;;;;0.00;0.00;;;;;;;;5022366;28;47041;-84
2021/12/04 00:36:35;;;;;;;;;0.00;0.00;;;;;;;;5040766;28;45465;-84
2021/12/04 00:50:03;;;;;;;;;0.00;0.00;;;;;;;;5083288;28;44749;-84
2021/12/04 00:52:28;;;;;;;;;0.00;0.00;;;;;;;;5082920;28;45514;-83
2021/12/04 00:54:54;;;;;;;;;0.00;0.00;;;;;;;;5067431;28;47212;-83
2021/12/04 00:57:19;;;;;;;;;0.00;0.00;;;;;;;;5067271;28;45504;-82
2021/12/04 00:59:44;;;;;;;;;0.00;0.00;;;;;;;;5066012;28;45414;-82
2021/12/04 01:02:09;;;;;;;;;0.00;0.00;;;;;;;;5065234;28;45628;-83
2021/12/04 01:04:35;;;;;;;;;0.00;0.00;;;;;;;;5065856;28;48090;-83
2021/12/04 01:07:00;;;;;;;;;0.00;0.00;;;;;;;;5067012;28;45589;-83
2021/12/04 01:09:26;;;;;;;;;0.00;0.00;;;;;;;;5067081;28;45449;-82
2021/12/04 01:11:52;;;;;;;;;0.00;0.00;;;;;;;;5067743;28;45522;-83
2021/12/04 01:14:18;;;;;;;;;0.00;0.00;;;;;;;;5068298;28;46930;-83
2021/12/04 01:16:44;;;;;;;;;0.00;0.00;;;;;;;;5086555;28;45390;-83
2021/12/04 01:19:09;;;;;;;;;0.00;0.00;;;;;;;;5066420;28;45650;-82
2021/12/04 01:21:36;;;;;;;;;0.00;0.00;;;;;;;;5083608;28;45525;-83
2021/12/04 01:24:02;;;;;;;;;0.00;0.00;;;;;;;;5083395;28;45418;-82
2021/12/04 01:26:27;;;;;;;;;0.00;0.00;;;;;;;;5066275;28;45479;-83
2021/12/04 01:28:52;;;;;;;;;0.00;0.00;;;;;;;;5084647;28;45682;-83
2021/12/04 01:31:18;;;;;;;;;0.00;0.00;;;;;;;;5085780;28;44888;-83
2021/12/04 01:33:43;;;;;;;;;0.00;0.00;;;;;;;;5064348;28;47173;-83
2021/12/04 01:36:09;;;;;;;;;0.00;0.00;;;;;;;;5085603;28;45430;-83
2021/12/04 01:38:35;;;;;;;;;0.00;0.00;;;;;;;;5066497;28;45394;-83
2021/12/04 01:41:00;;;;;;;;;0.00;0.00;;;;;;;;5085571;28;45366;-83
2021/12/04 01:43:25;;;;;;;;;0.00;0.00;;;;;;;;5068695;28;47119;-83
2021/12/04 01:45:52;;;;;;;;;0.00;0.00;;;;;;;;5067333;28;45945;-83
2021/12/04 01:48:18;;;;;;;;;0.00;0.00;;;;;;;;5085849;27;45374;-83
2021/12/04 01:50:43;;;;;;;;;0.00;0.00;;;;;;;;5085953;27;45876;-84
2021/12/04 01:53:08;;;;;;;;;0.00;0.00;;;;;;;;5066413;28;48537;-83
2021/12/04 01:55:34;;;;;;;;;0.00;0.00;;;;;;;;5084795;27;45346;-83
2021/12/04 01:58:01;;;;;;;;;0.25;0.25;;;;;;;;5086512;28;45433;-83
2021/12/04 02:00:31;;;;;;;;;0.00;0.00;;;;;;;;5064483;28;45466;-81
2021/12/04 02:02:56;;;;;;;;;0.00;0.00;;;;;;;;5086608;28;45472;-81
2021/12/04 02:05:21;;;;;;;;;0.00;0.00;;;;;;;;5084920;28;45383;-81
2021/12/04 02:07:47;;;;;;;;;0.00;0.00;;;;;;;;5084248;28;44936;-81
2021/12/04 02:10:12;;;;;;;;;0.00;0.00;;;;;;;;5066018;28;45628;-81
2021/12/04 02:12:38;;;;;;;;;0.00;0.00;;;;;;;;5084753;28;45592;-82
2021/12/04 02:15:04;;;;;;;;;0.00;0.00;;;;;;;;5084459;28;45431;-81
2021/12/04 02:17:29;;;;;;;;;1.00;0.00;;;;;;;;5066778;28;45426;-81
2021/12/04 02:19:56;;;;;;;;;0.50;0.50;;;;;;;;5087190;28;45541;-81
2021/12/04 02:22:21;;;;;;;;;0.00;0.00;;;;;;;;5084997;28;45792;-81
2021/12/04 02:24:46;;;;;;;;;0.00;0.00;;;;;;;;5064628;28;45469;-81
2021/12/04 02:27:13;;;;;;;;;0.00;0.00;;;;;;;;5066389;28;45383;-81
2021/12/04 02:29:46;;;;;;;;;0.00;0.00;;;;;;;;5066823;28;45918;-81
2021/12/04 02:32:11;;;;;;;;;0.00;0.00;;;;;;;;5085828;28;45649;-81
2021/12/04 02:34:37;;;;;;;;;0.00;0.00;;;;;;;;5083912;28;45647;-81
2021/12/04 02:37:03;;;;;;;;;0.00;0.00;;;;;;;;5084575;28;45598;-81
2021/12/04 02:39:35;;;;;;;;;0.00;0.00;;;;;;;;5066144;28;44814;-81
2021/12/04 02:42:00;;;;;;;;;0.00;0.00;;;;;;;;5064093;28;47882;-81
2021/12/04 02:44:52;;;;;;;;;1.00;0.00;;;;;;;;5064317;28;45367;-81
2021/12/04 02:47:17;;;;;;;;;0.00;0.00;;;;;;;;5058899;28;45453;-81
2021/12/04 02:49:43;;;;;;;;;0.00;0.00;;;;;;;;5065388;28;45437;-82
2021/12/04 02:52:09;;;;;;;;;0.00;0.00;;;;;;;;5082433;28;46598;-81
2021/12/04 02:54:35;;;;;;;;;0.00;0.00;;;;;;;;5064992;28;45404;-82
2021/12/04 02:57:02;;;;;;;;;1.00;0.00;;;;;;;;5083375;28;45518;-83
2021/12/04 02:59:28;;;;;;;;;1.75;0.00;;;;;;;;5083284;28;45753;-83
2021/12/04 03:01:55;;;;;;;;;0.00;0.00;;;;;;;;5082875;28;45825;-82
2021/12/04 03:04:25;;;;;;;;;0.00;0.00;;;;;;;;5064382;28;45953;-82
2021/12/04 03:06:50;;;;;;;;;0.00;0.00;;;;;;;;5064423;28;45427;-83
2021/12/04 03:09:16;;;;;;;;;0.00;0.00;;;;;;;;5064249;28;45395;-82
2021/12/04 03:11:41;;;;;;;;;0.00;0.00;;;;;;;;5064908;28;46997;-82
2021/12/04 03:14:08;;;;;;;;;0.00;0.00;;;;;;;;5082634;28;45405;-83
2021/12/04 03:16:34;;;;;;;;;0.00;0.00;;;;;;;;5083574;28;45550;-82
2021/12/04 03:19:00;;;;;;;;;0.00;0.00;;;;;;;;5082972;28;45477;-82
2021/12/04 03:21:25;;;;;;;;;0.00;0.00;;;;;;;;5064429;28;47346;-82
2021/12/04 03:26:50;;;;;;;;;0.75;0.00;;;;;;;;5000690;28;45455;-82
2021/12/04 03:29:19;;;;;;;;;0.00;0.00;;;;;;;;5003135;28;45773;-82
2021/12/04 03:42:23;;;;;;;;;2.00;0.67;;;;;;;;5000316;28;45478;-82
2021/12/04 03:44:49;;;;;;;;;0.00;0.00;;;;;;;;5001452;28;45547;-81
2021/12/04 03:47:14;;;;;;;;;0.00;0.00;;;;;;;;5001702;28;45415;-82
2021/12/04 03:49:39;;;;;;;;;0.00;0.00;;;;;;;;4982891;28;45627;-82
2021/12/04 03:52:05;;;;;;;;;0.00;0.00;;;;;;;;4980663;28;46095;-82
2021/12/04 03:54:31;;;;;;;;;0.00;0.00;;;;;;;;4980872;28;45789;-81
2021/12/04 03:57:05;;;;;;;;;0.25;0.25;;;;;;;;4980616;28;45847;-82
2021/12/04 03:59:35;;;;;;;;;0.00;0.00;;;;;;;;4980529;28;45487;-82
2021/12/04 04:02:00;;;;;;;;;0.00;0.00;;;;;;;;5003418;28;47429;-82
2021/12/04 04:04:25;;;;;;;;;1.25;1.00;;;;;;;;5063643;28;45326;-82
2021/12/04 04:06:51;;;;;;;;;0.00;0.00;;;;;;;;5064231;28;45315;-82
2021/12/04 04:09:16;;;;;;;;;0.00;0.00;;;;;;;;5064917;28;45449;-82
2021/12/04 04:11:41;;;;;;;;;0.00;0.00;;;;;;;;5064221;28;46095;-82
2021/12/04 04:14:07;;;;;;;;;0.75;0.00;;;;;;;;5046566;28;45425;-82
2021/12/04 04:16:35;;;;;;;;;0.50;0.50;;;;;;;;5064771;28;45405;-81
2021/12/04 04:19:01;;;;;;;;;0.00;0.00;;;;;;;;5062946;28;45797;-82
2021/12/04 04:21:26;;;;;;;;;0.00;0.00;;;;;;;;5045129;28;46848;-82
2021/12/04 04:23:51;;;;;;;;;0.00;0.00;;;;;;;;5061538;28;45370;-82
2021/12/04 04:26:47;;;;;;;;;0.00;0.00;;;;;;;;5059598;28;45436;-82
2021/12/04 04:29:13;;;;;;;;;0.00;0.00;;;;;;;;5044499;28;45539;-82
2021/12/04 04:31:49;;;;;;;;;0.00;0.00;;;;;;;;5048685;28;45363;-82
2021/12/04 04:34:21;;;;;;;;;0.00;0.00;;;;;;;;5022527;28;45972;-82
2021/12/04 05:14:34;;;;;;;;;0.00;0.00;;;;;;;;5081850;28;45412;-82
2021/12/04 05:17:07;;;;;;;;;0.00;0.00;;;;;;;;5063908;28;45300;-82
2021/12/04 05:22:04;;;;;;;;;0.00;0.00;;;;;;;;5083991;27;45409;-81
2021/12/04 05:24:30;;;;;;;;;0.00;0.00;;;;;;;;5083909;28;45336;-81
2021/12/04 05:26:55;;;;;;;;;0.00;0.00;;;;;;;;5085221;27;45373;-81
2021/12/04 05:29:20;;;;;;;;;0.00;0.00;;;;;;;;5068328;27;45777;-82
2021/12/04 05:31:46;;;;;;;;;0.00;0.00;;;;;;;;5085332;27;45475;-82
2021/12/04 05:34:11;;;;;;;;;1.00;1.00;;;;;;;;5081906;28;45119;-82
2021/12/04 05:36:36;;;;;;;;;0.00;0.00;;;;;;;;5063495;28;45146;-82
2021/12/04 05:39:02;;;;;;;;;0.00;0.00;;;;;;;;5064035;28;45286;-82
2021/12/04 05:41:28;;;;;;;;;0.00;0.00;;;;;;;;5082712;28;45494;-82
2021/12/04 05:43:53;;;;;;;;;0.00;0.00;;;;;;;;5063524;28;47588;-82
2021/12/04 05:46:33;;;;;;;;;0.00;0.00;;;;;;;;5064171;28;45816;-81
2021/12/04 05:49:30;;;;;;;;;0.00;0.00;;;;;;;;5081926;28;45428;-81
2021/12/04 05:57:09;;;;;;;;;0.00;0.00;;;;;;;;5081908;28;45405;-82
2021/12/04 05:59:34;;;;;;;;;0.00;0.00;;;;;;;;5082481;28;45441;-83
2021/12/04 06:02:00;;;;;;;;;0.00;0.00;;;;;;;;5080601;28;45475;-82
2021/12/04 06:04:25;;;;;;;;;0.00;0.00;;;;;;;;5079521;28;45385;-82
2021/12/04 06:09:53;;;;;;;;;0.00;0.00;;;;;;;;5079682;28;45626;-82
2021/12/04 06:12:19;;;;;;;;;0.00;0.00;;;;;;;;5080330;28;45398;-83
2021/12/04 06:14:46;;;;;;;;;0.00;0.00;;;;;;;;5060476;28;48298;-83
2021/12/04 06:17:12;;;;;;;;;0.00;0.00;;;;;;;;5061089;28;45495;-81
2021/12/04 06:25:08;;;;;;;;;0.00;0.00;;;;;;;;5078099;28;45359;-81
2021/12/04 06:27:34;;;;;;;;;0.00;0.00;;;;;;;;5064444;28;45358;-81
2021/12/04 06:30:00;;;;;;;;;0.00;0.00;;;;;;;;5065175;28;45840;-81
2021/12/04 06:32:25;;;;;;;;;0.00;0.00;;;;;;;;5082181;28;45421;-81
2021/12/04 06:34:52;;;;;;;;;0.00;0.00;;;;;;;;5063946;28;46875;-81
2021/12/04 06:37:17;;;;;;;;;0.00;0.00;;;;;;;;5059719;28;45406;-81
2021/12/04 06:39:42;;;;;;;;;0.00;0.00;;;;;;;;5061892;28;45751;-82
2021/12/04 06:42:08;;;;;;;;;0.00;0.00;;;;;;;;5061322;28;45428;-81
2021/12/04 06:44:33;;;;;;;;;0.00;0.00;;;;;;;;5059644;28;47721;-81
2021/12/04 06:46:59;;;;;;;;;0.00;0.00;;;;;;;;5080794;28;44788;-82
2021/12/04 06:49:35;;;;;;;;;0.00;0.00;;;;;;;;5064841;28;45521;-82
2021/12/04 06:52:04;;;;;;;;;0.00;0.00;;;;;;;;5066092;27;44932;-82
2021/12/04 06:57:37;;;;;;;;;0.00;0.00;;;;;;;;5083008;28;45751;-82
2021/12/04 07:00:03;;;;;;;;;0.25;0.00;;;;;;;;5064876;28;45418;-82
2021/12/04 07:02:28;;;;;;;;;1.00;0.00;;;;;;;;5084304;28;45471;-81
2021/12/04 07:04:54;;;;;;;;;0.50;0.00;;;;;;;;5064362;28;47343;-81
2021/12/04 07:07:19;;;;;;;;;3.00;1.00;;;;;;;;5083784;28;44832;-81
2021/12/04 07:09:46;;;;;;;;;0.00;0.00;;;;;;;;5083920;28;45424;-81
2021/12/04 07:12:11;;;;;;;;;0.00;0.00;;;;;;;;5065687;28;45556;-82
2021/12/04 07:14:37;;;;;;;;;0.00;0.00;;;;;;;;5083895;28;46540;-82
2021/12/04 07:17:03;;;;;;;;;0.00;0.00;;;;;;;;5065746;28;45475;-81
2021/12/04 07:19:30;;;;;;;;;0.00;0.00;;;;;;;;5086239;28;45463;-83
2021/12/04 07:21:55;;;;;;;;;0.00;0.00;;;;;;;;5086710;28;45448;-81
2021/12/04 07:24:20;;;;;;;;;0.00;0.00;;;;;;;;5066118;28;47184;-81
2021/12/04 07:26:45;;;;;;;;;0.00;0.00;;;;;;;;5065592;28;45410;-81
2021/12/04 07:29:11;;;;;;;;;0.00;0.00;;;;;;;;5081801;28;45465;-81
2021/12/04 07:31:37;;;;;;;;;0.50;0.50;;;;;;;;5082451;28;45504;-81
2021/12/04 07:37:05;;;;;;;;;0.50;0.50;;;;;;;;5082157;28;45435;-82
2021/12/04 07:39:30;;;;;;;;;1.00;1.00;;;;;;;;5064113;28;45796;-82
2021/12/04 07:41:56;;;;;;;;;0.50;0.50;;;;;;;;5081867;28;45457;-82
2021/12/04 07:44:21;;;;;;;;;1.00;1.00;;;;;;;;5083654;28;45680;-82
2021/12/04 07:46:46;;;;;;;;;0.50;0.00;;;;;;;;5065446;28;45879;-82
2021/12/04 07:49:11;;;;;;;;;0.00;0.00;;;;;;;;5053575;28;45442;-82
2021/12/04 07:51:37;;;;;;;;;0.50;0.50;;;;;;;;5064366;28;45330;-82
2021/12/04 07:54:03;;;;;;;;;0.00;0.00;;;;;;;;5063691;28;45390;-81
2021/12/04 07:56:29;;;;;;;;;0.00;0.00;;;;;;;;5062585;28;45489;-81
2021/12/04 07:58:54;;;;;;;;;1.00;1.00;;;;;;;;5043769;28;45415;-82
2021/12/04 08:01:19;;;;;;;;;0.00;0.00;;;;;;;;5062988;28;45565;-82
2021/12/04 08:03:45;;;;;;;;;0.25;0.00;;;;;;;;5062814;28;45293;-82
2021/12/04 08:06:10;;;;;;;;;1.00;1.00;;;;;;;;5043595;28;45860;-82
2021/12/04 08:08:35;;;;;;;;;0.00;0.00;;;;;;;;5062768;28;45476;-82
2021/12/04 08:11:02;;;;;;;;;0.00;0.00;;;;;;;;5061303;28;45467;-81
2021/12/04 08:13:28;;;;;;;;;0.00;0.00;;;;;;;;5062748;28;45401;-82
2021/12/04 08:15:53;;;;;;;;;0.00;0.00;;;;;;;;5062069;28;45427;-82
2021/12/04 08:18:19;;;;;;;;;0.00;0.00;;;;;;;;5062293;28;45548;-82
2021/12/04 08:20:45;;;;;;;;;0.00;0.00;;;;;;;;5045050;28;45506;-81
2021/12/04 08:23:10;;;;;;;;;0.00;0.00;;;;;;;;5044694;28;47806;-82
2021/12/04 08:25:35;;;;;;;;;0.00;0.00;;;;;;;;5062754;28;45394;-82
2021/12/04 08:28:01;;;;;;;;;0.00;0.00;;;;;;;;5043775;28;45538;-81
2021/12/04 08:30:29;;;;;;;;;0.00;0.00;;;;;;;;5063621;28;44755;-81
2021/12/04 08:32:56;;;;;;;;;0.00;0.00;;;;;;;;5059692;28;46766;-81
2021/12/04 08:35:24;;;;;;;;;0.00;0.00;;;;;;;;5045951;28;45433;-80
2021/12/04 08:37:49;;;;;;;;;0.00;0.00;;;;;;;;5044554;28;45465;-81
2021/12/04 08:40:15;;;;;;;;;0.00;0.00;;;;;;;;5045247;28;45398;-82
2021/12/04 08:42:41;;;;;;;;;0.00;0.00;;;;;;;;5044824;28;47551;-82
2021/12/04 08:45:06;;;;;;;;;0.00;0.00;;;;;;;;5048051;28;45647;-82
2021/12/04 08:47:34;;;;;;;;;0.00;0.00;;;;;;;;5047534;28;45406;-81
2021/12/04 08:49:59;;;;;;;;;0.00;0.00;;;;;;;;5083698;28;45892;-82
2021/12/04 08:52:24;;;;;;;;;0.00;0.00;;;;;;;;5084420;28;45672;-82
2021/12/04 08:54:50;;;;;;;;;2.00;0.00;;;;;;;;5082130;28;45514;-81
2021/12/04 08:57:15;;;;;;;;;0.00;0.00;;;;;;;;5082587;28;45549;-81
2021/12/04 08:59:41;;;;;;;;;0.00;0.00;;;;;;;;5064218;28;45930;-81
2021/12/04 09:02:06;;;;;;;;;0.00;0.00;;;;;;;;5082189;28;45891;-82
2021/12/04 09:04:34;;;;;;;;;0.00;0.00;;;;;;;;5082296;28;45456;-82
2021/12/04 09:07:00;;;;;;;;;0.00;0.00;;;;;;;;5063427;28;45462;-81
2021/12/04 09:09:28;;;;;;;;;0.00;0.00;;;;;;;;5063682;28;45531;-81
2021/12/04 09:11:56;;;;;;;;;0.00;0.00;;;;;;;;5063447;28;47086;-81
2021/12/04 09:14:24;;;;;;;;;0.00;0.00;;;;;;;;5080401;28;45389;-81
2021/12/04 09:16:51;;;;;;;;;0.00;0.00;;;;;;;;5080144;28;45337;-82
2021/12/04 09:19:17;;;;;;;;;0.00;0.00;;;;;;;;5063497;28;45478;-81
2021/12/04 09:21:42;;;;;;;;;0.00;0.00;;;;;;;;5062572;28;47911;-82
2021/12/04 10:05:11;;;;;;;;;0.00;0.00;;;;;;;;4903881;29;45679;-82
2021/12/04 10:16:56;;;;;;;;;1.00;0.00;;;;;;;;4903300;28;45847;-81
2021/12/04 10:34:55;;;;;;;;;0.00;0.00;;;;;;;;5000919;28;45552;-81
2021/12/04 10:37:25;;;;;;;;;0.67;0.67;;;;;;;;4984401;28;47811;-82
2021/12/04 10:39:55;;;;;;;;;1.33;0.33;;;;;;;;4984169;28;45569;-82
2021/12/04 10:42:25;;;;;;;;;2.00;0.67;;;;;;;;5002362;28;45863;-82
2021/12/04 10:44:52;;;;;;;;;1.33;0.67;;;;;;;;5003446;28;45549;-82
2021/12/04 10:47:28;;;;;;;;;1.00;1.00;;;;;;;;5047832;28;45489;-81
2021/12/04 10:50:10;;;;;;;;;0.67;0.00;;;;;;;;5064795;28;45484;-82
2021/12/04 11:03:43;;;;;;;;;0.67;0.67;;;;;;;;5056657;28;45708;-81
2021/12/04 11:22:28;;;;;;;;;1.33;0.67;;;;;;;;5065420;28;45263;-81
2021/12/04 11:25:21;;;;;;;;;1.00;1.00;;;;;;;;5047406;28;44814;-82
2021/12/04 11:44:12;;;;;;;;;1.67;1.67;;;;;;;;5003741;28;45566;-80
2021/12/04 11:46:43;;;;;;;;;2.00;2.00;;;;;;;;5004038;28;45591;-82
2021/12/04 11:49:14;;;;;;;;;0.67;0.67;;;;;;;;5002785;28;45411;-82
2021/12/04 11:52:11;;;;;;;;;1.00;0.67;;;;;;;;5002828;28;45378;-82
2021/12/04 11:54:58;;;;;;;;;3.00;2.00;;;;;;;;4986441;28;45516;-82
2021/12/04 11:57:30;;;;;;;;;1.00;1.00;;;;;;;;5002647;28;45553;-82
2021/12/04 12:00:06;;;;;;;;;1.00;1.00;;;;;;;;4984537;28;45761;-82
2021/12/04 12:02:33;;;;;;;;;2.00;2.00;;;;;;;;5001426;28;45462;-82
2021/12/04 12:04:58;;;;;;;;;3.00;2.00;;;;;;;;5001898;28;45511;-82
2021/12/04 12:07:24;;;;;;;;;2.33;2.33;;;;;;;;5000729;28;45508;-82
2021/12/04 12:10:08;;;;;;;;;2.33;1.00;;;;;;;;5001735;28;45483;-81
2021/12/04 12:12:36;;;;;;;;;1.00;1.00;;;;;;;;5000582;28;45747;-82
2021/12/04 12:15:05;;;;;;;;;1.67;1.67;;;;;;;;5002031;28;45584;-81
2021/12/04 12:17:32;;;;;;;;;1.00;1.00;;;;;;;;5001796;28;45823;-82
2021/12/04 12:19:58;;;;;;;;;1.67;0.00;;;;;;;;4988438;28;45408;-81
2021/12/04 12:25:19;;;;;;;;;2.00;1.00;;;;;;;;5061709;28;45784;-82
2021/12/04 12:36:04;;;;;;;;;3.33;2.00;;;;;;;;5061571;28;45411;-82
2021/12/04 12:38:35;;;;;;;;;3.00;2.67;;;;;;;;5046094;28;45433;-82
2021/12/04 12:41:15;;;;;;;;;3.67;2.00;;;;;;;;5046851;28;45439;-82
2021/12/04 12:43:41;;;;;;;;;2.00;1.00;;;;;;;;5045068;28;47110;-82
2021/12/04 12:46:07;;;;;;;;;3.33;2.00;;;;;;;;5072609;28;45382;-82
2021/12/04 12:48:43;;;;;;;;;2.00;0.33;;;;;;;;5046772;28;45398;-82
2021/12/04 12:51:22;;;;;;;;;1.67;1.00;;;;;;;;5045139;28;45358;-82
2021/12/04 12:53:47;;;;;;;;;3.00;2.00;;;;;;;;5045495;28;47311;-82
2021/12/04 12:56:14;;;;;;;;;3.00;3.00;;;;;;;;5063866;28;45515;-81
2021/12/04 13:12:41;;;;;;;;;2.33;1.00;;;;;;;;5002999;28;46074;-81
2021/12/04 13:15:06;;;;;;;;;3.00;3.00;;;;;;;;5001409;28;46976;-81
2021/12/04 13:17:32;;;;;;;;;2.67;2.33;;;;;;;;5001825;28;45451;-81
2021/12/04 13:19:58;;;;;;;;;2.33;2.33;;;;;;;;5003152;28;45822;-81
2021/12/04 13:22:31;;;;;;;;;2.00;2.00;;;;;;;;4985223;28;45886;-81
2021/12/04 13:24:58;;;;;;;;;3.00;2.00;;;;;;;;5001078;28;47896;-83
2021/12/04 13:29:54;;;;;;;;;3.00;3.00;;;;;;;;5000347;28;45530;-82
2021/12/04 13:32:32;;;;;;;;;1.33;1.33;;;;;;;;5001003;28;45415;-82
2021/12/04 13:35:09;;;;;;;;;3.00;2.00;;;;;;;;5000281;28;45636;-82
2021/12/04 13:37:35;;;;;;;;;0.00;0.00;;;;;;;;5017803;28;45435;-81
2021/12/04 13:40:05;;;;;;;;;3.00;1.00;;;;;;;;5001745;28;44797;-82
2021/12/04 13:42:32;;;;;;;;;1.67;1.67;;;;;;;;5017508;28;45379;-83
2021/12/04 13:44:57;;;;;;;;;1.67;1.67;;;;;;;;4983278;28;47644;-81
2021/12/04 13:47:24;;;;;;;;;1.00;1.00;;;;;;;;5034169;28;45892;-81
2021/12/04 13:49:57;;;;;;;;;2.67;2.67;;;;;;;;5046654;28;44853;-80
2021/12/04 13:52:23;;;;;;;;;8.00;4.00;;;;;;;;5047023;28;45493;-81
2021/12/04 13:54:50;;;;;;;;;6.00;2.00;;;;;;;;5044274;28;47120;-82
2021/12/04 13:57:16;;;;;;;;;2.00;2.00;;;;;;;;5063200;28;45504;-81
2021/12/04 13:59:42;;;;;;;;;2.00;2.00;;;;;;;;5044692;28;45750;-81
2021/12/04 14:02:17;;;;;;;;;2.67;2.67;;;;;;;;5045225;28;45801;-81
2021/12/04 14:04:43;;;;;;;;;2.00;2.00;;;;;;;;5062013;28;45716;-81
2021/12/04 14:07:08;;;;;;;;;4.00;3.00;;;;;;;;5043494;28;45489;-81
2021/12/04 14:09:35;;;;;;;;;6.33;2.67;;;;;;;;5063729;28;45420;-81
2021/12/04 14:12:00;;;;;;;;;2.00;2.00;;;;;;;;5045625;28;45520;-81
2021/12/04 14:14:27;;;;;;;;;2.00;2.00;;;;;;;;5047846;27;46928;-82
2021/12/04 14:16:53;;;;;;;;;2.00;1.00;;;;;;;;5047130;28;45416;-82
2021/12/04 14:19:25;;;;;;;;;1.67;1.67;;;;;;;;5063412;28;45478;-81
2021/12/04 14:21:57;;;;;;;;;1.00;1.00;;;;;;;;5064294;28;45386;-81
2021/12/04 14:24:33;;;;;;;;;5.67;3.00;;;;;;;;5064724;27;45481;-81
2021/12/04 14:26:59;;;;;;;;;5.33;3.33;;;;;;;;5046054;28;45298;-80
2021/12/04 14:29:26;;;;;;;;;3.00;3.00;;;;;;;;5066168;28;45527;-81
2021/12/04 14:31:51;;;;;;;;;1.00;1.00;;;;;;;;5045564;28;45929;-81
2021/12/04 14:34:21;;;;;;;;;2.33;1.00;;;;;;;;5063005;28;45545;-81
2021/12/04 14:36:46;;;;;;;;;2.67;1.67;;;;;;;;5045326;28;45407;-81
2021/12/04 14:39:22;;;;;;;;;1.00;1.00;;;;;;;;5051736;28;45395;-82
2021/12/04 14:41:47;;;;;;;;;1.00;1.00;;;;;;;;5044158;28;45375;-80
2021/12/04 14:44:12;;;;;;;;;2.00;0.67;;;;;;;;5063611;28;45372;-81
2021/12/04 14:46:38;;;;;;;;;4.00;2.00;;;;;;;;5064669;28;44827;-81
2021/12/04 14:49:09;;;;;;;;;3.00;2.00;;;;;;;;5061278;28;45393;-81
2021/12/04 14:51:53;;;;;;;;;0.00;0.00;;;;;;;;5063438;28;45341;-83
2021/12/04 14:54:26;;;;;;;;;1.00;1.00;;;;;;;;5062359;28;45484;-81
2021/12/04 14:56:51;;;;;;;;;2.00;2.00;;;;;;;;5063072;28;45445;-81
2021/12/04 14:59:16;;;;;;;;;1.00;1.00;;;;;;;;5063198;28;45531;-81
2021/12/04 15:01:42;;;;;;;;;2.33;2.33;;;;;;;;5063351;28;44911;-81
2021/12/04 15:04:07;;;;;;;;;2.67;2.00;;;;;;;;5045719;28;47227;-81
2021/12/04 15:06:33;;;;;;;;;2.00;1.00;;;;;;;;5063454;28;44842;-81
2021/12/04 15:09:10;;;;;;;;;1.33;1.33;;;;;;;;5044120;28;45494;-80
2021/12/04 15:11:37;;;;;;;;;2.00;1.00;;;;;;;;5046741;28;45371;-81
2021/12/04 15:14:10;;;;;;;;;3.67;1.67;;;;;;;;5046167;28;47318;-81
2021/12/04 15:16:39;;;;;;;;;2.33;1.00;;;;;;;;5067007;28;45767;-81
2021/12/04 15:19:19;;;;;;;;;1.67;1.67;;;;;;;;5062829;28;45856;-81
2021/12/04 15:21:57;;;;;;;;;1.00;1.00;;;;;;;;5064075;28;45406;-81
2021/12/04 15:24:27;;;;;;;;;1.67;1.67;;;;;;;;5065155;28;45413;-81
2021/12/04 15:26:56;;;;;;;;;1.00;1.00;;;;;;;;5066850;28;45441;-81
2021/12/04 15:29:23;;;;;;;;;1.33;1.33;;;;;;;;5047295;28;45826;-81
2021/12/04 15:31:51;;;;;;;;;2.00;2.00;;;;;;;;5065794;28;45726;-81
2021/12/04 15:34:16;;;;;;;;;1.00;1.00;;;;;;;;5065191;28;45489;-81
2021/12/04 15:36:44;;;;;;;;;0.00;0.00;;;;;;;;5063500;28;45534;-80
2021/12/04 15:39:17;;;;;;;;;0.00;0.00;;;;;;;;5046497;28;45714;-81
2021/12/04 15:42:12;;;;;;;;;0.00;0.00;;;;;;;;5046267;28;45361;-81
2021/12/04 15:55:05;;;;;;;;;2.00;1.00;;;;;;;;5065449;28;45557;-80
2021/12/04 15:57:30;;;;;;;;;0.33;0.33;;;;;;;;5065578;28;45440;-80
2021/12/04 15:59:58;;;;;;;;;0.00;0.00;;;;;;;;5064744;28;45467;-80
2021/12/04 16:02:31;;;;;;;;;1.00;1.00;;;;;;;;5045882;28;45461;-81
2021/12/04 16:05:03;;;;;;;;;0.67;0.67;;;;;;;;5063501;28;46221;-80
2021/12/04 16:07:32;;;;;;;;;0.00;0.00;;;;;;;;5049432;28;45427;-80
2021/12/04 16:10:04;;;;;;;;;0.00;0.00;;;;;;;;5066857;28;45452;-80
2021/12/04 16:12:29;;;;;;;;;0.33;0.33;;;;;;;;5048159;28;45534;-82
2021/12/04 16:14:56;;;;;;;;;1.00;1.00;;;;;;;;5047718;28;46663;-81
2021/12/04 16:17:21;;;;;;;;;0.00;0.00;;;;;;;;5064535;28;45588;-81
2021/12/04 16:19:51;;;;;;;;;1.00;1.00;;;;;;;;5061961;28;45527;-80
2021/12/04 16:22:17;;;;;;;;;0.67;0.67;;;;;;;;5043253;28;45369;-81
2021/12/04 16:24:46;;;;;;;;;1.00;1.00;;;;;;;;5042782;28;47289;-81
2021/12/04 16:29:49;;;;;;;;;1.00;1.00;;;;;;;;5061722;28;45437;-82
2021/12/04 16:35:18;;;;;;;;;1.67;1.67;;;;;;;;5061797;28;45410;-81
2021/12/04 16:37:49;;;;;;;;;1.00;1.00;;;;;;;;5062952;28;47603;-81
2021/12/04 16:40:20;;;;;;;;;1.00;1.00;;;;;;;;5079971;28;45554;-81
2021/12/04 16:42:46;;;;;;;;;0.00;0.00;;;;;;;;5062487;28;45420;-82
2021/12/04 16:45:14;;;;;;;;;1.67;1.67;;;;;;;;5062624;28;46910;-81
2021/12/04 16:47:45;;;;;;;;;2.00;0.67;;;;;;;;5080259;28;45488;-81
2021/12/04 16:50:15;;;;;;;;;0.00;0.00;;;;;;;;5079526;28;45864;-82
2021/12/04 16:55:41;;;;;;;;;0.00;0.00;;;;;;;;5079194;28;45427;-82
2021/12/04 16:58:13;;;;;;;;;1.00;1.00;;;;;;;;5061700;28;45700;-82
2021/12/04 17:00:43;;;;;;;;;0.00;0.00;;;;;;;;5080715;27;45768;-82
2021/12/04 17:03:10;;;;;;;;;0.33;0.33;;;;;;;;5063156;28;45587;-81
2021/12/04 17:05:35;;;;;;;;;0.00;0.00;;;;;;;;5080730;28;45577;-82
2021/12/04 17:08:01;;;;;;;;;1.00;1.00;;;;;;;;5062288;28;45490;-81
2021/12/04 17:10:27;;;;;;;;;0.67;0.67;;;;;;;;5079982;28;45420;-82
2021/12/04 17:12:59;;;;;;;;;1.67;1.00;;;;;;;;5064221;28;45820;-83
2021/12/04 17:15:25;;;;;;;;;2.00;1.00;;;;;;;;5063352;28;48170;-82
2021/12/04 17:17:51;;;;;;;;;3.00;1.33;;;;;;;;5080550;28;45511;-82
2021/12/04 17:20:19;;;;;;;;;3.00;3.00;;;;;;;;5062469;28;45819;-82
2021/12/04 17:22:46;;;;;;;;;5.00;2.00;;;;;;;;5079745;28;45490;-82
2021/12/04 17:25:11;;;;;;;;;2.67;2.67;;;;;;;;5060296;28;48240;-82
2021/12/04 17:27:36;;;;;;;;;2.00;2.00;;;;;;;;5059775;28;45804;-82
2021/12/04 17:30:06;;;;;;;;;2.00;2.00;;;;;;;;5060158;28;45649;-82
2021/12/04 17:32:32;;;;;;;;;2.00;2.00;;;;;;;;5059100;28;45389;-82
2021/12/04 17:34:57;;;;;;;;;2.00;0.00;;;;;;;;5060576;28;47135;-82
2021/12/04 17:37:27;;;;;;;;;2.33;2.33;;;;;;;;5060192;28;45877;-82
2021/12/04 17:39:53;;;;;;;;;2.67;2.67;;;;;;;;5059927;28;45695;-82
2021/12/04 17:42:19;;;;;;;;;1.67;1.67;;;;;;;;5059002;28;45561;-82
2021/12/04 17:44:51;;;;;;;;;1.00;1.00;;;;;;;;5080052;28;46852;-82
2021/12/04 17:47:20;;;;;;;;;0.00;0.00;;;;;;;;5062146;28;45344;-82
2021/12/04 17:49:45;;;;;;;;;1.67;1.67;;;;;;;;5080703;28;45478;-83
2021/12/04 17:52:10;;;;;;;;;2.00;1.00;;;;;;;;5064269;28;45425;-83
2021/12/04 17:54:35;;;;;;;;;1.00;1.00;;;;;;;;5062400;28;47130;-83
2021/12/04 17:57:01;;;;;;;;;1.00;1.00;;;;;;;;5059876;28;45534;-83
2021/12/04 17:59:29;;;;;;;;;0.33;0.00;;;;;;;;5060266;28;45430;-83
2021/12/04 18:02:06;;;;;;;;;0.67;0.67;;;;;;;;5061410;28;45413;-83
2021/12/04 18:04:33;;;;;;;;;3.00;3.00;;;;;;;;5059927;28;47322;-83
2021/12/04 18:07:01;;;;;;;;;3.33;2.00;;;;;;;;5078362;28;45511;-82
2021/12/04 18:09:33;;;;;;;;;3.00;3.00;;;;;;;;5061265;28;45360;-83
2021/12/04 18:12:02;;;;;;;;;5.00;5.00;;;;;;;;5081324;28;45454;-83
2021/12/04 18:14:28;;;;;;;;;10.00;9.67;;;;;;;;5080585;28;46780;-84
2021/12/04 18:16:54;;;;;;;;;10.00;3.00;;;;;;;;5079618;28;45791;-83
2021/12/04 18:19:21;;;;;;;;;3.67;3.00;;;;;;;;5062634;28;45398;-84
2021/12/04 18:21:46;;;;;;;;;1.33;1.33;;;;;;;;5063316;28;45627;-83
2021/12/04 18:24:13;;;;;;;;;5.00;5.00;;;;;;;;5080367;28;45513;-82
2021/12/04 18:26:41;;;;;;;;;5.33;5.33;;;;;;;;5060962;28;45567;-83
2021/12/04 18:29:07;;;;;;;;;8.67;7.00;;;;;;;;5061436;28;45819;-83
2021/12/04 18:31:33;;;;;;;;;9.33;6.67;;;;;;;;5061393;28;45893;-83
2021/12/04 18:33:58;;;;;;;;;7.00;7.00;;;;;;;;5059949;28;48495;-83
2021/12/04 18:36:24;;;;;;;;;7.00;5.67;;;;;;;;5065774;28;45381;-83
2021/12/04 18:38:49;;;;;;;;;10.33;9.33;;;;;;;;5039170;28;45450;-83
2021/12/04 18:41:18;;;;;;;;;11.33;9.00;;;;;;;;5039364;28;45350;-83
2021/12/04 18:43:46;;;;;;;;;10.00;7.00;;;;;;;;5041629;28;46880;-82
2021/12/04 18:46:12;;;;;;;;;14.67;14.67;;;;;;;;5060420;28;45489;-83
2021/12/04 18:48:37;;;;;;;;;15.00;14.00;;;;;;;;5064306;28;45300;-83